Time,TemperatureF,DewpointF,PressureIn,WindDirection,WindDirectionDegrees,WindSpeedMPH,WindSpeedGustMPH,Humidity,HourlyPrecipIn,Conditions,Clouds,dailyrainin,SoftwareType,DateUTC
2013-05-27 00:02:00,49.0,15.0,-100.00,SSW,208,8.0,14.0,25,0.00,,,0.00,,2013-05-27 06:02:00,
2013-05-27 00:11:00,49.0,15.0,-100.00,SSW,208,8.0,14.0,25,0.00,,,0.00,,2013-05-27 06:11:00,
2013-05-27 00:21:00,49.0,15.0,-100.00,SSW,208,8.0,14.0,25,0.00,,,0.00,,2013-05-27 06:21:00,
2013-05-27 00:52:00,48.0,10.0,-100.00,SW,216,9.0,19.0,21,0.00,,,0.00,,2013-05-27 06:52:00,
2013-05-27 01:02:00,48.0,10.0,-100.00,SW,216,9.0,19.0,21,0.00,,,0.00,,2013-05-27 07:02:00,
2013-05-27 01:11:00,48.0,10.0,-100.00,SW,216,9.0,19.0,21,0.00,,,0.00,,2013-05-27 07:11:00,
2013-05-27 01:21:00,48.0,10.0,-100.00,SW,216,9.0,19.0,21,0.00,,,0.00,,2013-05-27 07:21:00,
2013-05-27 01:52:00,48.0,9.0,-100.00,SW,214,11.0,16.0,20,0.00,,,0.00,,2013-05-27 07:52:00,
2013-05-27 02:02:00,48.0,9.0,-100.00,SW,214,11.0,16.0,20,0.00,,,0.00,,2013-05-27 08:02:00,
2013-05-27 02:11:00,48.0,9.0,-100.00,SW,214,11.0,16.0,20,0.00,,,0.00,,2013-05-27 08:11:00,
2013-05-27 02:22:00,48.0,9.0,-100.00,SW,214,11.0,16.0,20,0.00,,,0.00,,2013-05-27 08:22:00,
2013-05-27 02:52:00,47.0,9.0,-100.00,SW,215,9.0,19.0,21,0.00,,,0.00,,2013-05-27 08:52:00,
2013-05-27 03:02:00,47.0,9.0,-100.00,SW,215,9.0,19.0,21,0.00,,,0.00,,2013-05-27 09:02:00,
2013-05-27 03:11:00,47.0,9.0,-100.00,SW,215,9.0,19.0,21,0.00,,,0.00,,2013-05-27 09:11:00,
2013-05-27 03:21:00,47.0,9.0,-100.00,SW,215,9.0,19.0,21,0.00,,,0.00,,2013-05-27 09:21:00,
2013-05-27 03:53:00,45.0,5.0,-100.00,SW,225,5.0,14.0,19,0.00,,,0.00,,2013-05-27 09:53:00,
2013-05-27 04:02:00,45.0,5.0,-100.00,SW,225,5.0,14.0,19,0.00,,,0.00,,2013-05-27 10:02:00,
2013-05-27 04:12:00,45.0,5.0,-100.00,SW,225,5.0,14.0,19,0.00,,,0.00,,2013-05-27 10:12:00,
2013-05-27 04:22:00,45.0,5.0,-100.00,SW,225,5.0,14.0,19,0.00,,,0.00,,2013-05-27 10:22:00,
2013-05-27 04:52:00,45.0,4.0,-100.00,SW,226,3.0,11.0,18,0.00,,,0.00,,2013-05-27 10:52:00,
2013-05-27 05:02:00,45.0,4.0,-100.00,SW,226,3.0,11.0,18,0.00,,,0.00,,2013-05-27 11:02:00,
2013-05-27 05:11:00,45.0,4.0,-100.00,SW,226,3.0,11.0,18,0.00,,,0.00,,2013-05-27 11:11:00,
2013-05-27 05:22:00,45.0,4.0,-100.00,SW,226,3.0,11.0,18,0.00,,,0.00,,2013-05-27 11:22:00,
2013-05-27 05:52:00,44.0,4.0,-100.00,WSW,251,8.0,13.0,19,0.00,,,0.00,,2013-05-27 11:52:00,
2013-05-27 06:01:00,44.0,4.0,-100.00,WSW,251,8.0,13.0,19,0.00,,,0.00,,2013-05-27 12:01:00,
2013-05-27 06:11:00,44.0,4.0,-100.00,WSW,251,8.0,13.0,19,0.00,,,0.00,,2013-05-27 12:11:00,
2013-05-27 06:22:00,44.0,4.0,-100.00,WSW,251,8.0,13.0,19,0.00,,,0.00,,2013-05-27 12:22:00,
2013-05-27 06:52:00,45.0,5.0,-100.00,SW,216,6.0,9.0,19,0.00,,,0.00,,2013-05-27 12:52:00,
2013-05-27 07:01:00,45.0,5.0,-100.00,SW,216,6.0,9.0,19,0.00,,,0.00,,2013-05-27 13:01:00,
2013-05-27 07:11:00,45.0,5.0,-100.00,SW,216,6.0,9.0,19,0.00,,,0.00,,2013-05-27 13:11:00,
2013-05-27 07:22:00,45.0,5.0,-100.00,SW,216,6.0,9.0,19,0.00,,,0.00,,2013-05-27 13:22:00,
2013-05-27 07:53:00,49.0,9.0,-100.00,West,280,5.0,9.0,19,0.00,,,0.00,,2013-05-27 13:53:00,
2013-05-27 08:02:00,49.0,9.0,-100.00,West,280,5.0,9.0,19,0.00,,,0.00,,2013-05-27 14:02:00,
2013-05-27 08:11:00,49.0,9.0,-100.00,West,280,5.0,9.0,19,0.00,,,0.00,,2013-05-27 14:11:00,
2013-05-27 08:21:00,49.0,9.0,-100.00,West,280,5.0,9.0,19,0.00,,,0.00,,2013-05-27 14:21:00,
2013-05-27 08:52:00,50.0,9.0,-100.00,West,278,9.0,13.0,19,0.00,,,0.00,,2013-05-27 14:52:00,
2013-05-27 09:01:00,50.0,9.0,-100.00,West,278,9.0,13.0,19,0.00,,,0.00,,2013-05-27 15:01:00,
2013-05-27 09:11:00,50.0,9.0,-100.00,West,278,9.0,13.0,19,0.00,,,0.00,,2013-05-27 15:11:00,
2013-05-27 09:21:00,50.0,9.0,-100.00,West,278,9.0,13.0,19,0.00,,,0.00,,2013-05-27 15:21:00,
2013-05-27 09:53:00,51.0,10.0,-100.00,West,273,14.0,17.0,19,0.00,,,0.00,,2013-05-27 15:53:00,
2013-05-27 10:03:00,51.0,10.0,-100.00,West,273,14.0,17.0,19,0.00,,,0.00,,2013-05-27 16:03:00,
2013-05-27 10:12:00,51.0,10.0,-100.00,West,273,14.0,17.0,19,0.00,,,0.00,,2013-05-27 16:12:00,
2013-05-27 10:23:00,51.0,10.0,-100.00,West,273,14.0,17.0,19,0.00,,,0.00,,2013-05-27 16:23:00,
2013-05-27 10:53:00,52.0,14.0,-100.00,NW,308,10.0,22.0,22,0.00,,,0.00,,2013-05-27 16:53:00,
2013-05-27 11:02:00,52.0,14.0,-100.00,NW,308,10.0,22.0,22,0.00,,,0.00,,2013-05-27 17:02:00,
2013-05-27 11:11:00,52.0,14.0,-100.00,NW,308,10.0,22.0,22,0.00,,,0.00,,2013-05-27 17:11:00,
2013-05-27 11:22:00,52.0,14.0,-100.00,NW,308,10.0,22.0,22,0.00,,,0.00,,2013-05-27 17:22:00,
2013-05-27 11:52:00,54.0,17.0,-100.00,WNW,292,11.0,18.0,23,0.00,,,0.00,,2013-05-27 17:52:00,
2013-05-27 12:02:00,54.0,17.0,-100.00,WNW,292,11.0,18.0,23,0.00,,,0.00,,2013-05-27 18:02:00,
2013-05-27 12:11:00,54.0,17.0,-100.00,WNW,292,11.0,18.0,23,0.00,,,0.00,,2013-05-27 18:11:00,
2013-05-27 12:22:00,54.0,17.0,-100.00,WNW,292,11.0,18.0,23,0.00,,,0.00,,2013-05-27 18:22:00,
2013-05-27 12:52:00,57.0,14.0,-100.00,WSW,256,16.0,32.0,18,0.00,,,0.00,,2013-05-27 18:52:00,
2013-05-27 13:01:00,57.0,14.0,-100.00,WSW,256,16.0,32.0,18,0.00,,,0.00,,2013-05-27 19:01:00,
2013-05-27 13:11:00,57.0,14.0,-100.00,WSW,256,16.0,32.0,18,0.00,,,0.00,,2013-05-27 19:11:00,
2013-05-27 13:21:00,57.0,14.0,-100.00,WSW,256,16.0,32.0,18,0.00,,,0.00,,2013-05-27 19:21:00,
2013-05-27 13:52:00,57.0,14.0,-100.00,West,264,14.0,27.0,18,0.00,,,0.00,,2013-05-27 19:52:00,
2013-05-27 14:01:00,57.0,14.0,-100.00,West,264,14.0,27.0,18,0.00,,,0.00,,2013-05-27 20:01:00,
2013-05-27 14:11:00,57.0,14.0,-100.00,West,264,14.0,27.0,18,0.00,,,0.00,,2013-05-27 20:11:00,
2013-05-27 14:22:00,57.0,14.0,-100.00,West,264,14.0,27.0,18,0.00,,,0.00,,2013-05-27 20:22:00,
2013-05-27 14:52:00,57.0,13.0,-100.00,WNW,285,16.0,28.0,17,0.00,,,0.00,,2013-05-27 20:52:00,
2013-05-27 15:01:00,57.0,13.0,-100.00,WNW,285,16.0,28.0,17,0.00,,,0.00,,2013-05-27 21:01:00,
2013-05-27 15:12:00,57.0,13.0,-100.00,WNW,285,16.0,28.0,17,0.00,,,0.00,,2013-05-27 21:12:00,
2013-05-27 15:21:00,57.0,13.0,-100.00,WNW,285,16.0,28.0,17,0.00,,,0.00,,2013-05-27 21:21:00,
2013-05-27 15:53:00,56.0,12.0,-100.00,WSW,249,14.0,26.0,17,0.00,,,0.00,,2013-05-27 21:53:00,
2013-05-27 16:02:00,56.0,12.0,-100.00,WSW,249,14.0,26.0,17,0.00,,,0.00,,2013-05-27 22:02:00,
2013-05-27 16:12:00,56.0,12.0,-100.00,WSW,249,14.0,26.0,17,0.00,,,0.00,,2013-05-27 22:12:00,
2013-05-27 16:22:00,56.0,12.0,-100.00,WSW,249,14.0,26.0,17,0.00,,,0.00,,2013-05-27 22:22:00,
2013-05-27 16:53:00,53.0,16.0,-100.00,SW,217,12.0,24.0,23,0.00,,,0.00,,2013-05-27 22:53:00,
2013-05-27 17:02:00,53.0,16.0,-100.00,SW,217,12.0,24.0,23,0.00,,,0.00,,2013-05-27 23:02:00,
2013-05-27 17:12:00,53.0,16.0,-100.00,SW,217,12.0,24.0,23,0.00,,,0.00,,2013-05-27 23:12:00,
2013-05-27 17:22:00,53.0,16.0,-100.00,SW,217,12.0,24.0,23,0.00,,,0.00,,2013-05-27 23:22:00,
2013-05-27 17:52:00,55.0,14.0,-100.00,WNW,289,17.0,25.0,19,0.00,,,0.00,,2013-05-27 23:52:00,
2013-05-27 18:01:00,55.0,14.0,-100.00,WNW,289,17.0,25.0,19,0.00,,,0.00,,2013-05-28 00:01:00,
2013-05-27 18:11:00,55.0,14.0,-100.00,WNW,289,17.0,25.0,19,0.00,,,0.00,,2013-05-28 00:11:00,
2013-05-27 18:21:00,55.0,14.0,-100.00,WNW,289,17.0,25.0,19,0.00,,,0.00,,2013-05-28 00:21:00,
2013-05-27 18:52:00,56.0,20.0,-100.00,West,281,10.0,25.0,24,0.00,,,0.00,,2013-05-28 00:52:00,
2013-05-27 19:01:00,56.0,20.0,-100.00,West,281,10.0,25.0,24,0.00,,,0.00,,2013-05-28 01:01:00,
2013-05-27 19:11:00,56.0,20.0,-100.00,West,281,10.0,25.0,24,0.00,,,0.00,,2013-05-28 01:11:00,
2013-05-27 19:22:00,56.0,20.0,-100.00,West,281,10.0,25.0,24,0.00,,,0.00,,2013-05-28 01:22:00,
2013-05-27 19:52:00,53.0,20.0,-100.00,West,280,9.0,20.0,27,0.00,,,0.00,,2013-05-28 01:52:00,
2013-05-27 20:02:00,53.0,20.0,-100.00,West,280,9.0,20.0,27,0.00,,,0.00,,2013-05-28 02:02:00,
2013-05-27 20:11:00,53.0,20.0,-100.00,West,280,9.0,20.0,27,0.00,,,0.00,,2013-05-28 02:11:00,
2013-05-27 20:21:00,53.0,20.0,-100.00,West,280,9.0,20.0,27,0.00,,,0.00,,2013-05-28 02:21:00,
2013-05-27 20:52:00,48.0,19.0,-100.00,WNW,294,7.0,14.0,31,0.00,,,0.00,,2013-05-28 02:52:00,
2013-05-27 21:01:00,48.0,19.0,-100.00,WNW,294,7.0,14.0,31,0.00,,,0.00,,2013-05-28 03:01:00,
2013-05-27 21:11:00,48.0,19.0,-100.00,WNW,294,7.0,14.0,31,0.00,,,0.00,,2013-05-28 03:11:00,
2013-05-27 21:21:00,48.0,19.0,-100.00,WNW,294,7.0,14.0,31,0.00,,,0.00,,2013-05-28 03:21:00,
2013-05-27 21:53:00,47.0,19.0,-100.00,North,10,2.0,7.0,33,0.00,,,0.00,,2013-05-28 03:53:00,
2013-05-27 22:03:00,47.0,19.0,-100.00,North,10,2.0,7.0,33,0.00,,,0.00,,2013-05-28 04:03:00,
2013-05-27 22:13:00,47.0,19.0,-100.00,North,10,2.0,7.0,33,0.00,,,0.00,,2013-05-28 04:13:00,
2013-05-27 22:22:00,47.0,19.0,-100.00,North,10,2.0,7.0,33,0.00,,,0.00,,2013-05-28 04:22:00,
2013-05-27 22:53:00,46.0,19.0,-100.00,South,179,4.0,5.0,33,0.00,,,0.00,,2013-05-28 04:53:00,
2013-05-27 23:02:00,46.0,19.0,-100.00,South,179,4.0,5.0,33,0.00,,,0.00,,2013-05-28 05:02:00,
2013-05-27 23:12:00,46.0,19.0,-100.00,South,179,4.0,5.0,33,0.00,,,0.00,,2013-05-28 05:12:00,
2013-05-27 23:22:00,46.0,19.0,-100.00,South,179,4.0,5.0,33,0.00,,,0.00,,2013-05-28 05:22:00,
2013-05-27 23:52:00,46.0,16.0,-100.00,South,174,2.0,3.0,30,0.00,,,0.00,,2013-05-28 05:52:00,